sensor_id;sensor_type;location;lat;lon;timestamp;pressure;altitude;pressure_sealevel;temperature;humidity
79142;BME280;68550;-26.480;29.234;2023-06-14T00:01:41;84312.50;;;18.89;26.37
79142;BME280;68550;-26.480;29.234;2023-06-14T00:04:06;84306.84;;;19.16;26.25
79142;BME280;68550;-26.480;29.234;2023-06-14T00:06:32;84303.76;;;19.04;26.45
79142;BME280;68550;-26.480;29.234;2023-06-14T00:08:57;84301.19;;;19.26;26.29
79142;BME280;68550;-26.480;29.234;2023-06-14T00:11:23;84296.78;;;19.38;26.04
79142;BME280;68550;-26.480;29.234;2023-06-14T00:13:49;84294.30;;;18.65;26.12
79142;BME280;68550;-26.480;29.234;2023-06-14T00:16:14;84295.70;;;19.20;25.93
79142;BME280;68550;-26.480;29.234;2023-06-14T00:18:40;84289.32;;;18.97;26.01
79142;BME280;68550;-26.480;29.234;2023-06-14T00:21:05;84287.66;;;19.49;25.75
79142;BME280;68550;-26.480;29.234;2023-06-14T00:23:31;84290.33;;;19.40;25.60
79142;BME280;68550;-26.480;29.234;2023-06-14T00:25:56;84288.06;;;19.38;25.58
79142;BME280;68550;-26.480;29.234;2023-06-14T00:28:22;84287.30;;;19.39;25.57
79142;BME280;68550;-26.480;29.234;2023-06-14T00:30:47;84284.72;;;19.47;25.43
79142;BME280;68550;-26.480;29.234;2023-06-14T00:33:13;84282.67;;;19.29;25.52
79142;BME280;68550;-26.480;29.234;2023-06-14T00:35:42;84281.80;;;19.44;25.33
79142;BME280;68550;-26.480;29.234;2023-06-14T00:38:03;84278.27;;;19.42;25.38
79142;BME280;68550;-26.480;29.234;2023-06-14T00:40:29;84275.55;;;19.46;25.23
79142;BME280;68550;-26.480;29.234;2023-06-14T00:42:55;84269.83;;;19.31;25.32
79142;BME280;68550;-26.480;29.234;2023-06-14T00:45:20;84271.07;;;19.36;25.28
79142;BME280;68550;-26.480;29.234;2023-06-14T00:47:46;84268.33;;;19.25;25.27
79142;BME280;68550;-26.480;29.234;2023-06-14T00:50:12;84264.43;;;19.01;25.39
79142;BME280;68550;-26.480;29.234;2023-06-14T00:52:37;84260.84;;;19.08;25.39
79142;BME280;68550;-26.480;29.234;2023-06-14T00:55:03;84264.82;;;19.06;25.37
79142;BME280;68550;-26.480;29.234;2023-06-14T00:59:54;84269.23;;;19.12;25.21
79142;BME280;68550;-26.480;29.234;2023-06-14T01:02:19;84268.04;;;19.12;25.18
79142;BME280;68550;-26.480;29.234;2023-06-14T01:04:48;84264.70;;;19.03;25.24
79142;BME280;68550;-26.480;29.234;2023-06-14T01:07:15;84264.17;;;19.16;25.31
79142;BME280;68550;-26.480;29.234;2023-06-14T01:09:46;84261.38;;;19.07;25.21
79142;BME280;68550;-26.480;29.234;2023-06-14T01:12:09;84255.55;;;18.95;25.26
79142;BME280;68550;-26.480;29.234;2023-06-14T01:14:28;84253.68;;;19.09;25.18
79142;BME280;68550;-26.480;29.234;2023-06-14T01:16:55;84253.54;;;19.03;25.28
79142;BME280;68550;-26.480;29.234;2023-06-14T01:19:18;84251.42;;;19.02;25.23
79142;BME280;68550;-26.480;29.234;2023-06-14T01:21:54;84251.62;;;19.22;25.26
79142;BME280;68550;-26.480;29.234;2023-06-14T01:24:09;84252.85;;;19.07;25.27
79142;BME280;68550;-26.480;29.234;2023-06-14T01:26:34;84252.02;;;19.09;25.26
79142;BME280;68550;-26.480;29.234;2023-06-14T01:29:00;84254.41;;;19.08;25.47
79142;BME280;68550;-26.480;29.234;2023-06-14T01:31:26;84256.44;;;19.19;25.46
79142;BME280;68550;-26.480;29.234;2023-06-14T01:34:01;84249.76;;;19.00;25.58
79142;BME280;68550;-26.480;29.234;2023-06-14T01:36:18;84249.14;;;19.66;25.42
79142;BME280;68550;-26.480;29.234;2023-06-14T01:38:42;84245.21;;;19.18;25.41
79142;BME280;68550;-26.480;29.234;2023-06-14T01:41:09;84242.73;;;19.15;25.41
79142;BME280;68550;-26.480;29.234;2023-06-14T01:43:34;84241.60;;;19.05;25.47
79142;BME280;68550;-26.480;29.234;2023-06-14T01:45:59;84239.63;;;18.98;25.47
79142;BME280;68550;-26.480;29.234;2023-06-14T01:48:25;84238.22;;;19.12;25.35
79142;BME280;68550;-26.480;29.234;2023-06-14T01:50:50;84235.86;;;19.08;25.48
79142;BME280;68550;-26.480;29.234;2023-06-14T01:53:19;84236.99;;;19.11;25.31
79142;BME280;68550;-26.480;29.234;2023-06-14T01:55:41;84231.24;;;18.90;25.55
79142;BME280;68550;-26.480;29.234;2023-06-14T01:58:07;84230.35;;;18.98;25.51
79142;BME280;68550;-26.480;29.234;2023-06-14T02:00:32;84232.79;;;18.97;25.45
79142;BME280;68550;-26.480;29.234;2023-06-14T02:02:58;84230.66;;;18.81;25.59
79142;BME280;68550;-26.480;29.234;2023-06-14T02:05:26;84227.30;;;19.15;25.42
79142;BME280;68550;-26.480;29.234;2023-06-14T02:07:48;84224.70;;;18.96;25.52
79142;BME280;68550;-26.480;29.234;2023-06-14T02:10:14;84228.86;;;18.89;25.48
79142;BME280;68550;-26.480;29.234;2023-06-14T02:12:40;84232.22;;;18.87;25.47
79142;BME280;68550;-26.480;29.234;2023-06-14T02:15:06;84233.07;;;19.08;25.54
79142;BME280;68550;-26.480;29.234;2023-06-14T02:17:31;84234.13;;;19.02;25.61
79142;BME280;68550;-26.480;29.234;2023-06-14T02:19:57;84232.03;;;18.89;25.44
79142;BME280;68550;-26.480;29.234;2023-06-14T02:22:22;84228.47;;;18.87;25.45
79142;BME280;68550;-26.480;29.234;2023-06-14T02:24:51;84229.37;;;18.85;25.47
79142;BME280;68550;-26.480;29.234;2023-06-14T02:27:13;84228.24;;;18.88;25.53
79142;BME280;68550;-26.480;29.234;2023-06-14T02:29:41;84228.18;;;18.92;25.61
79142;BME280;68550;-26.480;29.234;2023-06-14T02:32:05;84224.32;;;18.98;25.51
79142;BME280;68550;-26.480;29.234;2023-06-14T02:34:30;84227.66;;;19.17;25.64
79142;BME280;68550;-26.480;29.234;2023-06-14T02:36:55;84223.74;;;18.81;25.58
79142;BME280;68550;-26.480;29.234;2023-06-14T02:39:21;84225.79;;;18.87;25.70
79142;BME280;68550;-26.480;29.234;2023-06-14T02:41:47;84228.13;;;18.68;25.51
79142;BME280;68550;-26.480;29.234;2023-06-14T02:44:14;84224.59;;;19.00;25.54
79142;BME280;68550;-26.480;29.234;2023-06-14T02:46:38;84222.01;;;18.75;25.58
79142;BME280;68550;-26.480;29.234;2023-06-14T02:49:06;84222.03;;;18.72;25.56
79142;BME280;68550;-26.480;29.234;2023-06-14T02:51:29;84217.29;;;18.69;25.61
79142;BME280;68550;-26.480;29.234;2023-06-14T02:53:54;84219.75;;;18.93;25.64
79142;BME280;68550;-26.480;29.234;2023-06-14T02:56:20;84215.77;;;18.70;25.58
79142;BME280;68550;-26.480;29.234;2023-06-14T02:58:46;84215.80;;;18.64;25.62
79142;BME280;68550;-26.480;29.234;2023-06-14T03:01:12;84217.47;;;18.70;25.59
79142;BME280;68550;-26.480;29.234;2023-06-14T03:03:37;84212.35;;;18.99;25.59
79142;BME280;68550;-26.480;29.234;2023-06-14T03:06:02;84213.41;;;18.70;25.58
79142;BME280;68550;-26.480;29.234;2023-06-14T03:08:28;84212.67;;;18.69;25.52
79142;BME280;68550;-26.480;29.234;2023-06-14T03:10:59;84212.05;;;18.81;25.61
79142;BME280;68550;-26.480;29.234;2023-06-14T03:13:19;84213.48;;;18.45;25.68
79142;BME280;68550;-26.480;29.234;2023-06-14T03:15:45;84216.39;;;18.51;25.88
79142;BME280;68550;-26.480;29.234;2023-06-14T03:18:10;84216.08;;;18.83;25.66
79142;BME280;68550;-26.480;29.234;2023-06-14T03:20:36;84219.07;;;18.61;25.70
79142;BME280;68550;-26.480;29.234;2023-06-14T03:23:02;84222.13;;;18.99;25.57
79142;BME280;68550;-26.480;29.234;2023-06-14T03:25:27;84221.57;;;18.62;25.90
79142;BME280;68550;-26.480;29.234;2023-06-14T03:27:52;84221.41;;;18.64;25.64
79142;BME280;68550;-26.480;29.234;2023-06-14T03:30:18;84217.04;;;18.50;25.77
79142;BME280;68550;-26.480;29.234;2023-06-14T03:32:44;84223.81;;;18.92;25.61
79142;BME280;68550;-26.480;29.234;2023-06-14T03:35:09;84225.32;;;18.84;25.71
79142;BME280;68550;-26.480;29.234;2023-06-14T03:37:35;84224.09;;;18.73;25.92
79142;BME280;68550;-26.480;29.234;2023-06-14T03:40:00;84221.08;;;18.68;25.92
79142;BME280;68550;-26.480;29.234;2023-06-14T03:42:26;84223.28;;;18.85;25.94
79142;BME280;68550;-26.480;29.234;2023-06-14T03:44:51;84223.60;;;18.64;26.06
79142;BME280;68550;-26.480;29.234;2023-06-14T03:47:17;84228.17;;;18.78;25.77
79142;BME280;68550;-26.480;29.234;2023-06-14T03:49:42;84231.42;;;18.84;25.83
79142;BME280;68550;-26.480;29.234;2023-06-14T03:52:11;84232.00;;;19.07;25.96
79142;BME280;68550;-26.480;29.234;2023-06-14T03:54:34;84230.93;;;18.82;25.96
79142;BME280;68550;-26.480;29.234;2023-06-14T03:56:59;84230.94;;;18.79;26.07
79142;BME280;68550;-26.480;29.234;2023-06-14T03:59:25;84235.13;;;18.50;26.18
79142;BME280;68550;-26.480;29.234;2023-06-14T04:01:51;84239.67;;;18.75;26.29
79142;BME280;68550;-26.480;29.234;2023-06-14T04:04:18;84242.78;;;18.75;26.04
79142;BME280;68550;-26.480;29.234;2023-06-14T04:06:42;84242.87;;;18.69;26.20
79142;BME280;68550;-26.480;29.234;2023-06-14T04:09:07;84246.63;;;18.81;26.53
79142;BME280;68550;-26.480;29.234;2023-06-14T04:11:33;84248.17;;;18.94;26.54
79142;BME280;68550;-26.480;29.234;2023-06-14T04:13:58;84251.77;;;18.40;26.77
79142;BME280;68550;-26.480;29.234;2023-06-14T04:16:24;84252.38;;;18.70;26.66
79142;BME280;68550;-26.480;29.234;2023-06-14T04:18:49;84257.19;;;18.68;26.43
79142;BME280;68550;-26.480;29.234;2023-06-14T04:21:15;84260.19;;;18.97;26.62
79142;BME280;68550;-26.480;29.234;2023-06-14T04:23:44;84258.31;;;18.64;26.61
79142;BME280;68550;-26.480;29.234;2023-06-14T04:26:06;84251.10;;;18.88;26.56
79142;BME280;68550;-26.480;29.234;2023-06-14T04:28:33;84256.02;;;18.48;26.75
79142;BME280;68550;-26.480;29.234;2023-06-14T04:30:58;84260.56;;;18.40;26.60
79142;BME280;68550;-26.480;29.234;2023-06-14T04:33:22;84269.72;;;18.58;26.66
79142;BME280;68550;-26.480;29.234;2023-06-14T04:35:48;84276.47;;;18.25;26.75
79142;BME280;68550;-26.480;29.234;2023-06-14T04:38:14;84279.04;;;18.54;26.76
79142;BME280;68550;-26.480;29.234;2023-06-14T04:40:40;84278.90;;;18.77;26.74
79142;BME280;68550;-26.480;29.234;2023-06-14T04:43:09;84279.65;;;18.50;26.49
79142;BME280;68550;-26.480;29.234;2023-06-14T04:45:30;84278.60;;;18.28;26.55
79142;BME280;68550;-26.480;29.234;2023-06-14T04:47:56;84281.60;;;18.60;26.79
79142;BME280;68550;-26.480;29.234;2023-06-14T04:50:22;84283.16;;;18.87;26.97
79142;BME280;68550;-26.480;29.234;2023-06-14T04:52:47;84284.10;;;18.37;27.32
79142;BME280;68550;-26.480;29.234;2023-06-14T04:55:13;84286.44;;;18.37;27.56
79142;BME280;68550;-26.480;29.234;2023-06-14T04:57:38;84286.84;;;18.48;27.88
79142;BME280;68550;-26.480;29.234;2023-06-14T05:00:05;84285.92;;;18.67;27.51
79142;BME280;68550;-26.480;29.234;2023-06-14T05:02:29;84292.24;;;18.52;27.52
79142;BME280;68550;-26.480;29.234;2023-06-14T05:04:57;84294.68;;;18.72;27.39
79142;BME280;68550;-26.480;29.234;2023-06-14T05:07:20;84293.95;;;18.51;27.39
79142;BME280;68550;-26.480;29.234;2023-06-14T05:09:46;84303.96;;;18.58;27.51
79142;BME280;68550;-26.480;29.234;2023-06-14T05:12:12;84312.19;;;18.39;27.84
79142;BME280;68550;-26.480;29.234;2023-06-14T05:14:37;84309.98;;;18.55;27.09
79142;BME280;68550;-26.480;29.234;2023-06-14T05:17:03;84308.34;;;18.60;27.19
79142;BME280;68550;-26.480;29.234;2023-06-14T05:19:28;84309.42;;;18.85;27.24
79142;BME280;68550;-26.480;29.234;2023-06-14T05:21:54;84308.54;;;18.75;27.24
79142;BME280;68550;-26.480;29.234;2023-06-14T05:24:19;84312.56;;;18.64;27.23
79142;BME280;68550;-26.480;29.234;2023-06-14T05:26:45;84312.36;;;18.41;27.14
79142;BME280;68550;-26.480;29.234;2023-06-14T05:29:10;84314.15;;;18.43;27.28
79142;BME280;68550;-26.480;29.234;2023-06-14T05:31:36;84307.95;;;18.25;27.40
79142;BME280;68550;-26.480;29.234;2023-06-14T05:34:01;84309.71;;;18.77;27.37
79142;BME280;68550;-26.480;29.234;2023-06-14T05:36:26;84309.46;;;18.73;27.41
79142;BME280;68550;-26.480;29.234;2023-06-14T05:38:52;84319.30;;;18.59;27.63
79142;BME280;68550;-26.480;29.234;2023-06-14T05:41:17;84321.22;;;18.70;27.31
79142;BME280;68550;-26.480;29.234;2023-06-14T05:43:45;84333.18;;;19.10;27.19
79142;BME280;68550;-26.480;29.234;2023-06-14T05:46:09;84333.03;;;18.54;27.18
79142;BME280;68550;-26.480;29.234;2023-06-14T05:48:34;84335.53;;;18.64;27.10
79142;BME280;68550;-26.480;29.234;2023-06-14T05:51:01;84337.87;;;19.11;27.11
79142;BME280;68550;-26.480;29.234;2023-06-14T05:53:25;84336.22;;;18.97;27.01
79142;BME280;68550;-26.480;29.234;2023-06-14T05:55:51;84335.88;;;19.00;27.00
79142;BME280;68550;-26.480;29.234;2023-06-14T05:58:17;84338.88;;;18.76;27.00
79142;BME280;68550;-26.480;29.234;2023-06-14T06:00:42;84335.01;;;19.29;26.98
79142;BME280;68550;-26.480;29.234;2023-06-14T06:03:07;84345.50;;;18.93;26.86
79142;BME280;68550;-26.480;29.234;2023-06-14T06:05:33;84348.98;;;18.96;26.85
79142;BME280;68550;-26.480;29.234;2023-06-14T06:07:59;84357.74;;;19.30;26.79
79142;BME280;68550;-26.480;29.234;2023-06-14T06:10:24;84356.60;;;19.07;26.79
79142;BME280;68550;-26.480;29.234;2023-06-14T06:12:50;84360.94;;;19.20;26.70
79142;BME280;68550;-26.480;29.234;2023-06-14T06:15:15;84367.70;;;19.15;26.76
79142;BME280;68550;-26.480;29.234;2023-06-14T06:17:41;84370.06;;;19.21;26.71
79142;BME280;68550;-26.480;29.234;2023-06-14T06:20:07;84369.71;;;19.11;26.82
79142;BME280;68550;-26.480;29.234;2023-06-14T06:22:32;84372.11;;;19.23;26.73
79142;BME280;68550;-26.480;29.234;2023-06-14T06:25:00;84371.25;;;19.53;26.68
79142;BME280;68550;-26.480;29.234;2023-06-14T06:27:23;84371.35;;;19.32;26.64
79142;BME280;68550;-26.480;29.234;2023-06-14T06:29:49;84382.48;;;19.45;26.63
79142;BME280;68550;-26.480;29.234;2023-06-14T06:32:14;84390.08;;;19.43;26.67
79142;BME280;68550;-26.480;29.234;2023-06-14T06:34:40;84390.53;;;19.55;26.63
79142;BME280;68550;-26.480;29.234;2023-06-14T06:37:07;84385.81;;;19.40;26.79
79142;BME280;68550;-26.480;29.234;2023-06-14T06:39:31;84386.08;;;19.56;26.68
79142;BME280;68550;-26.480;29.234;2023-06-14T06:41:56;84382.08;;;19.50;26.77
79142;BME280;68550;-26.480;29.234;2023-06-14T06:44:23;84381.76;;;19.39;26.68
79142;BME280;68550;-26.480;29.234;2023-06-14T06:46:49;84386.84;;;19.67;26.67
79142;BME280;68550;-26.480;29.234;2023-06-14T06:49:14;84391.09;;;19.38;26.75
79142;BME280;68550;-26.480;29.234;2023-06-14T06:51:42;84389.98;;;19.41;26.76
79142;BME280;68550;-26.480;29.234;2023-06-14T06:54:04;84391.96;;;19.23;26.92
79142;BME280;68550;-26.480;29.234;2023-06-14T06:56:30;84391.02;;;19.67;26.80
79142;BME280;68550;-26.480;29.234;2023-06-14T06:58:55;84385.83;;;19.52;26.97
79142;BME280;68550;-26.480;29.234;2023-06-14T07:01:23;84395.25;;;19.50;26.81
79142;BME280;68550;-26.480;29.234;2023-06-14T07:03:50;84393.50;;;19.59;26.93
79142;BME280;68550;-26.480;29.234;2023-06-14T07:06:12;84398.67;;;19.21;27.10
79142;BME280;68550;-26.480;29.234;2023-06-14T07:08:38;84403.14;;;19.23;27.14
79142;BME280;68550;-26.480;29.234;2023-06-14T07:11:03;84400.15;;;19.90;26.80
79142;BME280;68550;-26.480;29.234;2023-06-14T07:13:29;84407.56;;;19.17;27.46
79142;BME280;68550;-26.480;29.234;2023-06-14T07:15:58;84411.18;;;19.59;27.19
79142;BME280;68550;-26.480;29.234;2023-06-14T07:18:20;84410.91;;;19.65;26.90
79142;BME280;68550;-26.480;29.234;2023-06-14T07:20:45;84414.14;;;19.86;26.98
79142;BME280;68550;-26.480;29.234;2023-06-14T07:23:11;84416.25;;;19.61;27.02
79142;BME280;68550;-26.480;29.234;2023-06-14T07:25:36;84415.38;;;19.25;27.35
79142;BME280;68550;-26.480;29.234;2023-06-14T07:28:06;84418.15;;;19.11;27.34
79142;BME280;68550;-26.480;29.234;2023-06-14T07:30:28;84413.03;;;19.17;27.47
79142;BME280;68550;-26.480;29.234;2023-06-14T07:32:53;84409.33;;;19.47;27.42
79142;BME280;68550;-26.480;29.234;2023-06-14T07:35:19;84412.13;;;19.09;27.75
79142;BME280;68550;-26.480;29.234;2023-06-14T07:37:46;84412.36;;;19.33;27.59
79142;BME280;68550;-26.480;29.234;2023-06-14T07:40:13;84413.18;;;19.48;27.29
79142;BME280;68550;-26.480;29.234;2023-06-14T07:42:36;84414.76;;;19.74;27.06
79142;BME280;68550;-26.480;29.234;2023-06-14T07:45:01;84416.75;;;19.35;27.38
79142;BME280;68550;-26.480;29.234;2023-06-14T07:47:26;84416.17;;;19.00;27.67
79142;BME280;68550;-26.480;29.234;2023-06-14T07:49:52;84410.94;;;19.57;27.37
79142;BME280;68550;-26.480;29.234;2023-06-14T07:52:18;84414.05;;;19.29;27.45
79142;BME280;68550;-26.480;29.234;2023-06-14T07:54:43;84412.52;;;18.92;27.49
79142;BME280;68550;-26.480;29.234;2023-06-14T07:57:09;84414.99;;;19.27;27.25
79142;BME280;68550;-26.480;29.234;2023-06-14T07:59:34;84420.63;;;19.24;27.45
79142;BME280;68550;-26.480;29.234;2023-06-14T08:02:00;84419.09;;;19.28;27.43
79142;BME280;68550;-26.480;29.234;2023-06-14T08:04:26;84415.58;;;18.99;27.49
79142;BME280;68550;-26.480;29.234;2023-06-14T08:06:51;84416.88;;;19.32;27.44
79142;BME280;68550;-26.480;29.234;2023-06-14T08:09:17;84417.96;;;19.32;27.44
79142;BME280;68550;-26.480;29.234;2023-06-14T08:11:42;84419.99;;;19.48;27.51
79142;BME280;68550;-26.480;29.234;2023-06-14T08:14:08;84417.20;;;19.17;27.46
79142;BME280;68550;-26.480;29.234;2023-06-14T08:16:33;84415.25;;;19.65;27.28
79142;BME280;68550;-26.480;29.234;2023-06-14T08:19:02;84416.49;;;19.31;27.36
79142;BME280;68550;-26.480;29.234;2023-06-14T08:21:24;84415.63;;;19.60;27.19
79142;BME280;68550;-26.480;29.234;2023-06-14T08:23:50;84412.07;;;19.89;26.91
79142;BME280;68550;-26.480;29.234;2023-06-14T08:26:15;84412.42;;;19.90;26.94
79142;BME280;68550;-26.480;29.234;2023-06-14T08:28:41;84414.88;;;19.19;27.58
79142;BME280;68550;-26.480;29.234;2023-06-14T08:31:08;84414.55;;;19.16;27.61
79142;BME280;68550;-26.480;29.234;2023-06-14T08:33:32;84410.54;;;19.35;27.68
79142;BME280;68550;-26.480;29.234;2023-06-14T08:35:57;84402.24;;;18.89;27.89
79142;BME280;68550;-26.480;29.234;2023-06-14T08:38:23;84401.60;;;19.24;27.83
79142;BME280;68550;-26.480;29.234;2023-06-14T08:40:51;84400.11;;;19.11;27.97
79142;BME280;68550;-26.480;29.234;2023-06-14T08:43:14;84394.81;;;18.94;27.92
79142;BME280;68550;-26.480;29.234;2023-06-14T08:45:42;84392.79;;;19.26;27.63
79142;BME280;68550;-26.480;29.234;2023-06-14T08:48:07;84393.51;;;19.16;27.74
79142;BME280;68550;-26.480;29.234;2023-06-14T08:50:33;84392.39;;;19.26;27.83
79142;BME280;68550;-26.480;29.234;2023-06-14T08:53:01;84382.79;;;19.10;27.96
79142;BME280;68550;-26.480;29.234;2023-06-14T08:55:24;84385.90;;;19.38;27.75
79142;BME280;68550;-26.480;29.234;2023-06-14T08:57:48;84380.66;;;19.44;27.69
79142;BME280;68550;-26.480;29.234;2023-06-14T09:00:14;84377.04;;;18.51;28.02
79142;BME280;68550;-26.480;29.234;2023-06-14T09:02:39;84372.80;;;19.38;27.75
79142;BME280;68550;-26.480;29.234;2023-06-14T09:05:04;84369.87;;;19.32;27.59
79142;BME280;68550;-26.480;29.234;2023-06-14T09:07:31;84371.95;;;19.57;27.47
79142;BME280;68550;-26.480;29.234;2023-06-14T09:10:07;84369.65;;;19.79;27.26
79142;BME280;68550;-26.480;29.234;2023-06-14T09:12:20;84363.95;;;19.72;27.32
79142;BME280;68550;-26.480;29.234;2023-06-14T09:14:47;84361.04;;;19.70;27.37
79142;BME280;68550;-26.480;29.234;2023-06-14T09:17:14;84363.93;;;19.82;27.33
79142;BME280;68550;-26.480;29.234;2023-06-14T09:19:37;84362.66;;;20.23;26.98
79142;BME280;68550;-26.480;29.234;2023-06-14T09:22:04;84362.48;;;20.52;27.13
79142;BME280;68550;-26.480;29.234;2023-06-14T09:24:28;84358.72;;;20.15;27.08
79142;BME280;68550;-26.480;29.234;2023-06-14T09:26:54;84353.85;;;19.68;27.52
79142;BME280;68550;-26.480;29.234;2023-06-14T09:29:19;84353.30;;;19.47;27.74
79142;BME280;68550;-26.480;29.234;2023-06-14T09:31:46;84354.23;;;19.37;27.83
79142;BME280;68550;-26.480;29.234;2023-06-14T09:34:13;84353.48;;;19.39;27.82
79142;BME280;68550;-26.480;29.234;2023-06-14T09:36:36;84344.01;;;19.28;27.92
79142;BME280;68550;-26.480;29.234;2023-06-14T09:39:02;84347.69;;;19.27;28.16
79142;BME280;68550;-26.480;29.234;2023-06-14T09:41:33;84342.64;;;19.13;28.11
79142;BME280;68550;-26.480;29.234;2023-06-14T09:43:52;84344.60;;;19.28;27.90
79142;BME280;68550;-26.480;29.234;2023-06-14T09:46:19;84342.22;;;19.37;27.79
79142;BME280;68550;-26.480;29.234;2023-06-14T09:48:43;84339.56;;;19.60;27.83
79142;BME280;68550;-26.480;29.234;2023-06-14T09:51:10;84336.25;;;19.45;27.73
79142;BME280;68550;-26.480;29.234;2023-06-14T09:53:35;84335.63;;;19.43;27.75
79142;BME280;68550;-26.480;29.234;2023-06-14T09:56:00;84330.05;;;19.51;27.72
79142;BME280;68550;-26.480;29.234;2023-06-14T09:58:27;84324.01;;;19.44;27.64
79142;BME280;68550;-26.480;29.234;2023-06-14T10:00:52;84318.02;;;19.16;27.74
79142;BME280;68550;-26.480;29.234;2023-06-14T10:03:22;84308.65;;;19.14;27.75
79142;BME280;68550;-26.480;29.234;2023-06-14T10:05:45;84296.95;;;20.09;27.20
79142;BME280;68550;-26.480;29.234;2023-06-14T10:08:10;84302.36;;;20.25;27.06
79142;BME280;68550;-26.480;29.234;2023-06-14T10:10:35;84298.45;;;20.03;27.29
79142;BME280;68550;-26.480;29.234;2023-06-14T10:12:59;84287.39;;;20.39;27.16
79142;BME280;68550;-26.480;29.234;2023-06-14T10:15:31;84280.55;;;20.21;26.94
79142;BME280;68550;-26.480;29.234;2023-06-14T10:17:52;84261.90;;;20.43;26.98
79142;BME280;68550;-26.480;29.234;2023-06-14T10:20:27;84276.38;;;20.44;26.98
79142;BME280;68550;-26.480;29.234;2023-06-14T10:22:45;84266.63;;;19.68;27.64
79142;BME280;68550;-26.480;29.234;2023-06-14T10:25:10;84260.77;;;19.78;27.43
79142;BME280;68550;-26.480;29.234;2023-06-14T10:27:32;84252.27;;;19.55;27.82
79142;BME280;68550;-26.480;29.234;2023-06-14T10:30:04;84250.97;;;19.45;27.94
79142;BME280;68550;-26.480;29.234;2023-06-14T10:32:23;84254.97;;;19.35;28.06
79142;BME280;68550;-26.480;29.234;2023-06-14T10:34:53;84257.85;;;19.41;28.01
79142;BME280;68550;-26.480;29.234;2023-06-14T10:37:15;84244.11;;;19.72;27.96
79142;BME280;68550;-26.480;29.234;2023-06-14T10:39:41;84240.12;;;19.35;27.85
79142;BME280;68550;-26.480;29.234;2023-06-14T10:42:05;84229.78;;;19.60;27.87
79142;BME280;68550;-26.480;29.234;2023-06-14T10:44:40;84238.61;;;19.53;27.96
79142;BME280;68550;-26.480;29.234;2023-06-14T10:47:00;84232.65;;;19.32;28.11
79142;BME280;68550;-26.480;29.234;2023-06-14T10:51:52;84223.22;;;19.57;27.92
79142;BME280;68550;-26.480;29.234;2023-06-14T10:54:17;84220.14;;;19.55;27.94
79142;BME280;68550;-26.480;29.234;2023-06-14T10:56:38;84216.94;;;19.71;27.79
79142;BME280;68550;-26.480;29.234;2023-06-14T10:59:04;84210.48;;;19.81;27.67
79142;BME280;68550;-26.480;29.234;2023-06-14T11:01:36;84206.74;;;20.11;27.49
79142;BME280;68550;-26.480;29.234;2023-06-14T11:04:00;84198.16;;;20.46;27.14
79142;BME280;68550;-26.480;29.234;2023-06-14T11:06:23;84196.12;;;20.58;27.06
79142;BME280;68550;-26.480;29.234;2023-06-14T11:11:12;84192.01;;;20.43;27.16
79142;BME280;68550;-26.480;29.234;2023-06-14T11:13:41;84184.38;;;20.47;27.12
79142;BME280;68550;-26.480;29.234;2023-06-14T11:16:04;84179.72;;;20.48;27.13
79142;BME280;68550;-26.480;29.234;2023-06-14T11:18:29;84176.73;;;20.56;27.09
79142;BME280;68550;-26.480;29.234;2023-06-14T11:20:54;84175.02;;;20.05;27.50
79142;BME280;68550;-26.480;29.234;2023-06-14T11:23:19;84177.75;;;19.68;27.91
79142;BME280;68550;-26.480;29.234;2023-06-14T11:25:50;84175.62;;;19.32;28.02
79142;BME280;68550;-26.480;29.234;2023-06-14T11:28:12;84177.81;;;19.34;28.03
79142;BME280;68550;-26.480;29.234;2023-06-14T11:30:36;84173.86;;;19.61;27.99
79142;BME280;68550;-26.480;29.234;2023-06-14T11:33:01;84169.72;;;19.25;27.99
79142;BME280;68550;-26.480;29.234;2023-06-14T11:35:27;84166.40;;;19.77;27.73
79142;BME280;68550;-26.480;29.234;2023-06-14T11:37:54;84165.56;;;19.53;27.95
79142;BME280;68550;-26.480;29.234;2023-06-14T11:40:19;84157.16;;;19.75;27.95
79142;BME280;68550;-26.480;29.234;2023-06-14T11:42:43;84152.36;;;19.43;28.03
79142;BME280;68550;-26.480;29.234;2023-06-14T11:45:11;84149.94;;;19.45;28.03
79142;BME280;68550;-26.480;29.234;2023-06-14T11:47:35;84148.38;;;19.53;27.99
79142;BME280;68550;-26.480;29.234;2023-06-14T11:50:00;84146.45;;;19.68;27.81
79142;BME280;68550;-26.480;29.234;2023-06-14T11:52:27;84145.56;;;19.60;27.86
79142;BME280;68550;-26.480;29.234;2023-06-14T11:54:51;84142.25;;;19.88;27.64
79142;BME280;68550;-26.480;29.234;2023-06-14T11:57:18;84137.18;;;19.92;27.58
79142;BME280;68550;-26.480;29.234;2023-06-14T11:59:43;84134.79;;;20.30;27.25
79142;BME280;68550;-26.480;29.234;2023-06-14T12:02:08;84135.79;;;20.47;27.11
79142;BME280;68550;-26.480;29.234;2023-06-14T12:04:33;84135.01;;;20.49;27.11
79142;BME280;68550;-26.480;29.234;2023-06-14T12:07:09;84131.27;;;20.50;27.09
79142;BME280;68550;-26.480;29.234;2023-06-14T12:09:24;84131.23;;;20.53;27.08
79142;BME280;68550;-26.480;29.234;2023-06-14T12:14:15;84134.20;;;20.35;27.28
79142;BME280;68550;-26.480;29.234;2023-06-14T12:16:41;84128.78;;;19.93;27.55
79142;BME280;68550;-26.480;29.234;2023-06-14T12:19:11;84130.81;;;19.90;27.52
79142;BME280;68550;-26.480;29.234;2023-06-14T12:21:32;84130.99;;;19.76;27.65
79142;BME280;68550;-26.480;29.234;2023-06-14T12:23:59;84123.52;;;19.85;27.53
79142;BME280;68550;-26.480;29.234;2023-06-14T12:26:25;84118.08;;;19.90;27.39
79142;BME280;68550;-26.480;29.234;2023-06-14T12:28:48;84119.28;;;19.80;27.28
79142;BME280;68550;-26.480;29.234;2023-06-14T12:31:15;84110.39;;;19.85;27.41
79142;BME280;68550;-26.480;29.234;2023-06-14T12:33:40;84111.81;;;19.80;27.42
79142;BME280;68550;-26.480;29.234;2023-06-14T12:36:07;84108.15;;;19.66;27.64
79142;BME280;68550;-26.480;29.234;2023-06-14T12:38:31;84104.78;;;19.58;27.16
79142;BME280;68550;-26.480;29.234;2023-06-14T12:40:56;84099.40;;;19.87;26.99